createdAt,value
2019-01-31T00:11:53.004Z,987.53
2019-01-31T00:14:13.805Z,987.47
2019-01-31T00:16:40.259Z,987.52
2019-01-31T00:17:34.311Z,987.49
2019-01-31T00:18:29.196Z,987.53
2019-01-31T00:24:25.286Z,987.55
2019-01-31T00:25:16.335Z,987.53
2019-01-31T00:27:56.468Z,987.54
2019-01-31T01:00:05.686Z,987.47
2019-01-31T01:00:57.723Z,987.46
2019-01-31T01:01:54.469Z,987.43
2019-01-31T01:02:46.104Z,987.42
2019-01-31T01:07:03.884Z,987.37
2019-01-31T01:07:59.125Z,987.34
2019-01-31T01:08:52.842Z,987.35
2019-01-31T01:09:44.953Z,987.38
2019-01-31T01:10:36.564Z,987.37
2019-01-31T01:11:28.931Z,987.29
2019-01-31T01:12:18.054Z,987.31
2019-01-31T01:13:11.378Z,987.27
2019-01-31T01:27:30.265Z,987.25
2019-01-31T02:10:53.906Z,987.22
2019-01-31T02:11:52.167Z,987.17
2019-01-31T02:21:28.048Z,987.12
2019-01-31T03:00:43.549Z,987.13
2019-01-31T03:12:24.280Z,987.04
2019-01-31T03:13:20.545Z,987.03
2019-01-31T03:14:16.318Z,986.99
2019-01-31T03:20:12.925Z,987.03
2019-01-31T03:21:05.548Z,987
2019-01-31T03:21:58.263Z,987.01
2019-01-31T03:22:51.197Z,986.99
2019-01-31T03:23:44.121Z,986.95
2019-01-31T03:24:36.507Z,986.96
2019-01-31T03:31:54.232Z,986.94
2019-01-31T03:42:41.176Z,986.96
2019-01-31T03:43:36.070Z,986.94
2019-01-31T03:47:28.462Z,987.02
2019-01-31T03:50:00.438Z,986.89
2019-01-31T03:50:58.542Z,986.97
2019-01-31T03:51:53.038Z,987
2019-01-31T03:54:01.155Z,986.98
2019-01-31T03:58:08.624Z,986.95
2019-01-31T03:59:08.538Z,986.93
2019-01-31T04:03:48.373Z,986.88
2019-01-31T04:23:13.066Z,986.91
2019-01-31T05:10:47.967Z,986.72
2019-01-31T05:11:40.505Z,986.7
2019-01-31T05:12:32.926Z,986.71
2019-01-31T05:13:25.290Z,986.75
2019-01-31T05:14:18.193Z,986.76
2019-01-31T05:15:10.776Z,986.78
2019-01-31T05:16:03.876Z,986.71
2019-01-31T05:16:55.985Z,986.74
2019-01-31T05:17:49.879Z,986.79
2019-01-31T05:18:42.320Z,986.74
2019-01-31T05:19:35.006Z,986.74
2019-01-31T05:20:28.445Z,986.71
2019-01-31T05:21:20.995Z,986.75
2019-01-31T05:22:13.868Z,986.76
2019-01-31T05:23:06.469Z,986.8
2019-01-31T05:24:00.226Z,986.82
2019-01-31T05:24:55.864Z,986.84
2019-01-31T05:25:47.512Z,986.81
2019-01-31T05:26:39.149Z,986.83
2019-01-31T05:27:29.280Z,986.87
2019-01-31T05:28:09.084Z,986.8
2019-01-31T05:28:49.419Z,986.85
2019-01-31T05:29:29.818Z,986.84
2019-01-31T05:30:10.214Z,986.88
2019-01-31T05:30:50.640Z,986.85
2019-01-31T05:31:31.033Z,986.87
2019-01-31T05:32:11.389Z,986.87
2019-01-31T05:32:51.861Z,986.88
2019-01-31T05:33:32.162Z,986.83
2019-01-31T05:34:12.599Z,986.84
2019-01-31T05:34:53.013Z,986.83
2019-01-31T05:35:33.279Z,986.87
2019-01-31T05:36:13.668Z,986.87
2019-01-31T05:36:54.065Z,986.81
2019-01-31T05:37:34.395Z,986.83
2019-01-31T05:38:17.357Z,986.83
2019-01-31T05:38:55.266Z,986.8
2019-01-31T05:39:35.690Z,986.79
2019-01-31T05:40:16.050Z,986.81
2019-01-31T05:40:56.478Z,986.79
2019-01-31T05:41:36.787Z,986.77
2019-01-31T05:42:17.176Z,986.78
2019-01-31T05:42:57.576Z,986.8
2019-01-31T05:43:37.959Z,986.79
2019-01-31T05:44:18.384Z,986.84
2019-01-31T05:44:58.681Z,986.78
2019-01-31T05:45:39.154Z,986.81
2019-01-31T05:46:19.565Z,986.8
2019-01-31T05:46:59.949Z,986.78
2019-01-31T05:47:40.342Z,986.79
2019-01-31T05:48:20.664Z,986.78
2019-01-31T05:49:01.043Z,986.8
2019-01-31T05:49:41.481Z,986.8
2019-01-31T05:50:21.897Z,986.81
2019-01-31T05:51:02.234Z,986.79
2019-01-31T05:51:42.625Z,986.78
2019-01-31T05:52:23.042Z,986.84
2019-01-31T05:53:03.434Z,986.79
2019-01-31T05:53:43.772Z,986.8
2019-01-31T05:54:24.128Z,986.82
2019-01-31T05:55:04.545Z,986.84
2019-01-31T05:55:44.927Z,986.81
2019-01-31T05:56:25.278Z,986.84
2019-01-31T05:57:05.727Z,986.87
2019-01-31T05:57:46.100Z,986.84
2019-01-31T05:58:26.501Z,986.81
2019-01-31T05:59:06.839Z,986.79
2019-01-31T05:59:47.307Z,986.85
2019-01-31T06:02:11.760Z,986.83
2019-01-31T06:03:06.068Z,986.83
2019-01-31T06:04:00.294Z,986.88
2019-01-31T06:06:11.798Z,986.86
2019-01-31T06:07:11.071Z,986.88
2019-01-31T06:08:03.820Z,986.82
2019-01-31T06:08:58.288Z,986.9
2019-01-31T06:09:53.892Z,986.87
2019-01-31T06:10:53.839Z,986.91
2019-01-31T06:11:46.319Z,986.89
2019-01-31T06:14:15.739Z,986.85
2019-01-31T06:15:09.587Z,986.89
2019-01-31T06:16:02.455Z,986.88
2019-01-31T06:16:54.732Z,986.84
2019-01-31T06:17:47.993Z,986.85
2019-01-31T06:18:43.656Z,986.85
2019-01-31T06:19:36.113Z,986.86
2019-01-31T06:20:28.375Z,986.86
2019-01-31T06:21:21.574Z,986.9
2019-01-31T06:22:13.813Z,986.91
2019-01-31T06:23:51.132Z,986.89
2019-01-31T06:28:58.851Z,986.91
2019-01-31T06:29:51.230Z,986.87
2019-01-31T06:30:44.769Z,986.9
2019-01-31T06:31:36.805Z,986.91
2019-01-31T06:32:29.059Z,986.93
2019-01-31T06:33:21.500Z,986.96
2019-01-31T06:34:14.127Z,986.91
2019-01-31T06:35:07.613Z,986.91
2019-01-31T06:36:01.058Z,986.94
2019-01-31T06:36:54.665Z,987
2019-01-31T06:37:47.123Z,986.97
2019-01-31T06:38:39.439Z,987.05
2019-01-31T06:39:31.577Z,987.01
2019-01-31T06:40:23.486Z,987.02
2019-01-31T06:41:18.462Z,987.04
2019-01-31T06:42:09.533Z,987.04
2019-01-31T06:43:02.678Z,987
2019-01-31T06:43:56.136Z,987.04
2019-01-31T06:44:52.179Z,987.03
2019-01-31T06:45:47.815Z,987.05
2019-01-31T06:46:43.929Z,987.05
2019-01-31T06:47:48.930Z,987.05
2019-01-31T06:48:46.451Z,987.09
2019-01-31T06:49:43.873Z,987.09
2019-01-31T06:50:42.987Z,987.1
2019-01-31T06:51:39.705Z,987.13
2019-01-31T06:52:36.164Z,987.13
2019-01-31T06:53:30.352Z,987.13
2019-01-31T06:54:25.258Z,987.1
2019-01-31T06:55:20.871Z,987.14
2019-01-31T06:56:16.935Z,987.11
2019-01-31T06:57:12.017Z,987.14
2019-01-31T06:58:07.008Z,987.16
2019-01-31T06:59:02.667Z,987.15
2019-01-31T06:59:57.576Z,987.17
2019-01-31T07:00:54.118Z,987.19
2019-01-31T07:03:48.160Z,987.25
2019-01-31T07:04:42.062Z,987.21
2019-01-31T07:05:37.023Z,987.21
2019-01-31T07:18:10.022Z,987.32
2019-01-31T07:19:04.969Z,987.34
2019-01-31T07:20:00.577Z,987.33
2019-01-31T07:20:56.092Z,987.34
2019-01-31T07:21:49.639Z,987.31
2019-01-31T07:22:45.983Z,987.37
2019-01-31T07:23:38.824Z,987.33
2019-01-31T07:24:34.137Z,987.32
2019-01-31T07:25:26.576Z,987.36
2019-01-31T07:26:21.638Z,987.35
2019-01-31T07:27:20.041Z,987.39
2019-01-31T07:28:15.160Z,987.4
2019-01-31T07:29:08.817Z,987.38
2019-01-31T07:30:03.065Z,987.41
2019-01-31T07:31:01.081Z,987.38
2019-01-31T07:31:59.564Z,987.43
2019-01-31T07:32:55.571Z,987.43
2019-01-31T07:35:51.791Z,987.4
2019-01-31T07:37:03.266Z,987.48
2019-01-31T07:38:01.217Z,987.43
2019-01-31T07:39:00.281Z,987.46
2019-01-31T07:39:56.453Z,987.45
2019-01-31T07:40:56.228Z,987.47
2019-01-31T07:41:54.984Z,987.45
2019-01-31T07:42:50.789Z,987.47
2019-01-31T07:43:49.095Z,987.48
2019-01-31T07:44:44.159Z,987.5
2019-01-31T07:45:41.020Z,987.51
2019-01-31T07:46:38.682Z,987.5
2019-01-31T07:47:37.176Z,987.5
2019-01-31T07:48:36.833Z,987.48
2019-01-31T07:49:48.038Z,987.48
2019-01-31T07:50:52.376Z,987.51
2019-01-31T08:16:07.026Z,987.38
2019-01-31T08:18:04.457Z,987.44
2019-01-31T08:25:37.566Z,987.47
2019-01-31T08:26:34.844Z,987.52
2019-01-31T08:27:33.016Z,987.49
2019-01-31T08:28:38.767Z,987.51
2019-01-31T08:29:34.759Z,987.48
2019-01-31T08:30:37.502Z,987.47
2019-01-31T08:32:27.408Z,987.47
2019-01-31T08:33:30.767Z,987.49
2019-01-31T08:34:33.023Z,987.47
2019-01-31T08:35:33.107Z,987.49
2019-01-31T08:36:33.202Z,987.46
2019-01-31T08:40:16.564Z,987.46
2019-01-31T08:41:13.245Z,987.44
2019-01-31T08:54:23.200Z,987.5
2019-01-31T09:02:33.989Z,987.45
2019-01-31T09:03:27.413Z,987.46
2019-01-31T09:05:48.331Z,987.47
2019-01-31T09:08:50.433Z,987.5
2019-01-31T09:13:38.119Z,987.47
2019-01-31T09:14:37.594Z,987.47
2019-01-31T09:15:36.376Z,987.48
2019-01-31T09:16:34.550Z,987.47
2019-01-31T09:17:32.485Z,987.48
2019-01-31T09:18:28.035Z,987.46
2019-01-31T09:19:25.320Z,987.46
2019-01-31T09:20:27.360Z,987.47
2019-01-31T09:21:28.018Z,987.44
2019-01-31T09:22:31.628Z,987.48
2019-01-31T09:23:32.692Z,987.51
2019-01-31T09:24:33.588Z,987.48
2019-01-31T09:26:54.233Z,987.5
2019-01-31T09:27:34.058Z,987.5
2019-01-31T09:28:15.980Z,987.49
2019-01-31T09:28:57.290Z,987.5
2019-01-31T09:29:40.005Z,987.48
2019-01-31T09:30:21.737Z,987.49
2019-01-31T09:31:02.703Z,987.48
2019-01-31T09:31:43.731Z,987.47
2019-01-31T09:32:26.374Z,987.51
2019-01-31T09:33:07.059Z,987.49
2019-01-31T09:33:48.042Z,987.52
2019-01-31T09:34:29.234Z,987.49
2019-01-31T09:35:11.310Z,987.53
2019-01-31T09:35:52.735Z,987.51
2019-01-31T09:36:33.796Z,987.58
2019-01-31T09:37:14.858Z,987.54
2019-01-31T09:37:55.233Z,987.54
2019-01-31T09:38:36.886Z,987.52
2019-01-31T09:39:16.730Z,987.54
2019-01-31T09:39:57.263Z,987.54
2019-01-31T09:40:38.770Z,987.51
2019-01-31T09:41:18.835Z,987.52
2019-01-31T09:41:59.326Z,987.53
2019-01-31T09:42:39.976Z,987.51
2019-01-31T09:43:21.281Z,987.52
2019-01-31T09:44:01.938Z,987.51
2019-01-31T09:44:43.145Z,987.5
2019-01-31T09:45:24.501Z,987.51
2019-01-31T09:46:05.350Z,987.51
2019-01-31T09:46:46.396Z,987.52
2019-01-31T09:47:26.882Z,987.52
2019-01-31T09:54:01.854Z,987.46
2019-01-31T09:54:43.466Z,987.49
2019-01-31T09:55:23.924Z,987.49
2019-01-31T09:56:04.682Z,987.46
2019-01-31T09:56:48.552Z,987.43
2019-01-31T10:03:41.100Z,987.46
2019-01-31T10:04:34.412Z,987.43
2019-01-31T10:05:11.361Z,987.4
2019-01-31T10:05:51.692Z,987.43
2019-01-31T10:06:32.190Z,987.43
2019-01-31T10:07:12.551Z,987.43
2019-01-31T10:07:54.814Z,987.47
2019-01-31T10:08:35.280Z,987.48
2019-01-31T10:09:16.138Z,987.46
2019-01-31T10:09:56.419Z,987.5
2019-01-31T10:10:37.276Z,987.45
2019-01-31T10:11:17.683Z,987.47
2019-01-31T10:11:58.787Z,987.49
2019-01-31T10:12:43.060Z,987.5
2019-01-31T10:13:24.052Z,987.52
2019-01-31T10:14:05.346Z,987.51
2019-01-31T10:14:45.301Z,987.51
2019-01-31T10:15:26.779Z,987.52
2019-01-31T10:16:08.853Z,987.53
2019-01-31T10:16:48.552Z,987.52
2019-01-31T10:17:31.539Z,987.55
2019-01-31T10:18:12.365Z,987.51
2019-01-31T10:18:53.087Z,987.5
2019-01-31T10:19:34.474Z,987.54
2019-01-31T10:20:14.740Z,987.54
2019-01-31T10:20:56.305Z,987.52
2019-01-31T10:21:36.890Z,987.55
2019-01-31T10:22:18.918Z,987.56
2019-01-31T10:22:59.920Z,987.53
2019-01-31T10:23:40.038Z,987.54
2019-01-31T10:24:20.298Z,987.5
2019-01-31T10:25:01.792Z,987.49
2019-01-31T10:25:41.875Z,987.54
2019-01-31T10:26:22.456Z,987.49
2019-01-31T10:27:03.767Z,987.5
2019-01-31T10:27:43.830Z,987.48
2019-01-31T10:28:25.270Z,987.51
2019-01-31T10:29:05.817Z,987.51
2019-01-31T11:30:43.284Z,986.92
2019-01-31T11:33:13.091Z,986.97
2019-01-31T11:34:02.654Z,986.94
2019-01-31T11:34:54.639Z,986.92
2019-01-31T11:35:49.052Z,986.92
2019-01-31T11:36:39.414Z,986.96
2019-01-31T11:37:34.956Z,986.93
2019-01-31T11:38:25.506Z,986.97
2019-01-31T11:39:18.961Z,986.98
2019-01-31T11:40:10.212Z,986.97
2019-01-31T11:41:06.180Z,986.93
2019-01-31T11:41:55.199Z,986.92
2019-01-31T11:44:37.916Z,986.92
2019-01-31T11:45:26.069Z,986.9
2019-01-31T11:51:44.703Z,986.88
2019-01-31T11:52:33.212Z,986.89
2019-01-31T11:53:22.358Z,986.92
2019-01-31T11:54:12.108Z,986.92
2019-01-31T11:55:01.062Z,986.91
2019-01-31T11:55:50.018Z,986.9
2019-01-31T11:56:38.393Z,986.88
2019-01-31T11:59:33.409Z,986.95
2019-01-31T12:00:22.157Z,986.92
2019-01-31T12:01:10.629Z,986.94
2019-01-31T12:01:59.615Z,986.95
2019-01-31T12:02:54.644Z,986.88
2019-01-31T12:03:36.472Z,986.95
2019-01-31T12:04:28.909Z,986.93
2019-01-31T12:05:17.532Z,986.94
2019-01-31T12:06:06.640Z,986.93
2019-01-31T12:11:48.290Z,986.98
2019-01-31T12:12:36.840Z,987
2019-01-31T12:13:25.816Z,987.04
2019-01-31T12:14:14.251Z,987.04
2019-01-31T12:15:03.226Z,987.03
2019-01-31T12:15:51.832Z,987.02
2019-01-31T12:16:40.501Z,987.03
2019-01-31T12:17:29.346Z,987.03
2019-01-31T12:18:18.323Z,986.98
2019-01-31T12:19:07.507Z,986.98
2019-01-31T12:19:55.588Z,986.99
2019-01-31T12:20:44.277Z,986.99
2019-01-31T12:21:32.724Z,986.96
2019-01-31T12:22:21.659Z,986.94
2019-01-31T12:23:09.859Z,986.94
2019-01-31T12:23:58.404Z,986.92
2019-01-31T12:24:47.333Z,986.89
2019-01-31T12:25:37.081Z,986.92
2019-01-31T12:26:25.402Z,986.91
2019-01-31T12:27:13.916Z,986.91
2019-01-31T12:28:02.963Z,986.9
2019-01-31T12:28:52.445Z,986.92
2019-01-31T12:29:41.558Z,986.92
2019-01-31T12:30:29.552Z,986.91
2019-01-31T12:31:18.406Z,986.95
2019-01-31T12:32:06.892Z,986.93
2019-01-31T12:32:58.778Z,986.98
2019-01-31T12:33:46.121Z,987
2019-01-31T12:34:36.864Z,986.98
2019-01-31T12:35:25.841Z,986.93
2019-01-31T12:36:13.894Z,986.88
2019-01-31T12:37:02.974Z,986.87
2019-01-31T12:37:51.458Z,986.91
2019-01-31T12:38:39.879Z,986.87
2019-01-31T12:39:29.323Z,986.9
2019-01-31T12:40:17.510Z,986.91
2019-01-31T12:41:06.334Z,986.89
2019-01-31T12:41:55.074Z,986.82
2019-01-31T12:42:44.384Z,986.87
2019-01-31T12:43:34.905Z,986.83
2019-01-31T12:44:21.086Z,986.86
2019-01-31T12:45:10.010Z,986.83
2019-01-31T12:45:58.859Z,986.84
2019-01-31T12:46:47.829Z,986.81
2019-01-31T12:47:35.836Z,986.85
2019-01-31T12:48:25.274Z,986.86
2019-01-31T12:49:14.230Z,986.89
2019-01-31T12:50:02.572Z,986.86
2019-01-31T12:50:51.709Z,986.86
2019-01-31T12:51:40.037Z,986.87
2019-01-31T12:52:28.788Z,986.84
2019-01-31T12:53:17.378Z,986.83
2019-01-31T12:54:06.100Z,986.85
2019-01-31T12:54:54.857Z,986.86
2019-01-31T12:55:43.833Z,986.89
2019-01-31T12:56:32.994Z,986.84
2019-01-31T12:57:21.072Z,986.86
2019-01-31T12:58:09.839Z,986.85
2019-01-31T12:58:58.337Z,986.85
2019-01-31T12:59:47.198Z,986.8
2019-01-31T13:00:35.446Z,986.86
2019-01-31T13:01:23.971Z,986.82
2019-01-31T13:02:12.833Z,986.81
2019-01-31T13:03:01.464Z,986.82
2019-01-31T13:03:50.503Z,986.82
2019-01-31T13:04:43.680Z,986.82
2019-01-31T13:05:35.824Z,986.81
2019-01-31T13:06:23.570Z,986.8
2019-01-31T13:07:12.881Z,986.81
2019-01-31T13:08:02.074Z,986.81
2019-01-31T13:08:50.527Z,986.83
2019-01-31T13:09:39.201Z,986.82
2019-01-31T13:10:27.743Z,986.88
2019-01-31T13:11:16.420Z,986.86
2019-01-31T13:12:05.953Z,986.89
2019-01-31T13:12:54.333Z,986.87
2019-01-31T13:13:47.136Z,986.85
2019-01-31T13:14:36.609Z,986.85
2019-01-31T13:15:29.157Z,986.87
2019-01-31T13:16:16.906Z,986.89
2019-01-31T13:17:06.506Z,986.87
2019-01-31T13:17:56.347Z,986.8
2019-01-31T13:18:47.385Z,986.8
2019-01-31T13:19:38.893Z,986.77
2019-01-31T13:20:32.384Z,986.75
2019-01-31T13:21:26.356Z,986.75
2019-01-31T13:24:50.382Z,986.74
2019-01-31T13:25:36.077Z,986.74
2019-01-31T13:26:16.534Z,986.72
2019-01-31T13:27:00.466Z,986.7
2019-01-31T13:31:41.786Z,986.66
2019-01-31T13:32:23.647Z,986.67
2019-01-31T13:33:04.593Z,986.68
2019-01-31T13:33:46.734Z,986.68
2019-01-31T13:34:37.263Z,986.65
2019-01-31T13:35:24.894Z,986.6
2019-01-31T13:36:05.233Z,986.54
2019-01-31T13:36:45.935Z,986.57
2019-01-31T13:37:26.178Z,986.6
2019-01-31T13:38:08.022Z,986.54
2019-01-31T13:38:48.641Z,986.54
2019-01-31T13:39:31.122Z,986.53
2019-01-31T13:40:12.042Z,986.55
2019-01-31T13:40:52.730Z,986.52
2019-01-31T13:41:34.112Z,986.52
2019-01-31T13:42:14.550Z,986.51
2019-01-31T13:42:55.284Z,986.59
2019-01-31T13:43:36.959Z,986.53
2019-01-31T13:44:17.629Z,986.52
2019-01-31T13:44:59.200Z,986.51
2019-01-31T13:45:39.859Z,986.54
2019-01-31T13:46:21.545Z,986.51
2019-01-31T13:47:01.780Z,986.53
2019-01-31T13:47:42.648Z,986.51
2019-01-31T13:48:23.898Z,986.55
2019-01-31T13:49:04.986Z,986.56
2019-01-31T13:49:45.942Z,986.55
2019-01-31T13:55:59.778Z,986.5
2019-01-31T13:56:45.371Z,986.51
2019-01-31T13:57:21.315Z,986.52
2019-01-31T13:58:01.747Z,986.49
2019-01-31T13:58:42.584Z,986.48
2019-01-31T13:59:23.362Z,986.46
2019-01-31T14:00:03.779Z,986.51
2019-01-31T14:00:44.264Z,986.48
2019-01-31T14:01:27.921Z,986.49
2019-01-31T14:02:09.318Z,986.5
2019-01-31T14:02:49.859Z,986.45
2019-01-31T14:03:33.388Z,986.47
2019-01-31T14:04:15.945Z,986.44
2019-01-31T14:04:57.454Z,986.45
2019-01-31T14:05:40.774Z,986.44
2019-01-31T14:06:22.819Z,986.41
2019-01-31T14:07:06.252Z,986.42
2019-01-31T14:07:47.740Z,986.41
2019-01-31T14:08:28.286Z,986.4
2019-01-31T14:09:14.310Z,986.39
2019-01-31T14:09:54.838Z,986.41
2019-01-31T14:10:37.540Z,986.43
2019-01-31T14:11:18.398Z,986.44
2019-01-31T14:12:00.785Z,986.41
2019-01-31T14:12:41.756Z,986.4
2019-01-31T14:13:21.941Z,986.42
2019-01-31T14:14:08.878Z,986.48
2019-01-31T14:14:48.269Z,986.47
2019-01-31T14:15:33.753Z,986.49
2019-01-31T14:16:13.968Z,986.51
2019-01-31T14:16:57.336Z,986.5
2019-01-31T14:17:40.528Z,986.49
2019-01-31T14:18:25.026Z,986.48
2019-01-31T14:19:08.272Z,986.48
2019-01-31T14:19:51.768Z,986.49
2019-01-31T14:20:33.882Z,986.51
2019-01-31T14:21:14.707Z,986.52
2019-01-31T14:21:55.765Z,986.49
2019-01-31T14:22:42.914Z,986.51
2019-01-31T14:23:28.831Z,986.49
2019-01-31T14:24:09.115Z,986.51
2019-01-31T14:24:49.794Z,986.53
2019-01-31T14:25:30.405Z,986.57
2019-01-31T14:26:11.206Z,986.53
2019-01-31T14:26:58.498Z,986.54
2019-01-31T14:30:59.905Z,986.5
2019-01-31T14:31:41.270Z,986.47
2019-01-31T14:32:21.695Z,986.51
2019-01-31T14:33:03.453Z,986.44
2019-01-31T14:33:49.718Z,986.5
2019-01-31T14:34:31.029Z,986.49
2019-01-31T14:35:11.708Z,986.49
2019-01-31T14:35:57.888Z,986.02
2019-01-31T14:36:43.531Z,986.49
2019-01-31T14:37:26.445Z,986.37
2019-01-31T14:38:07.204Z,986.45
2019-01-31T14:38:47.938Z,986.43
2019-01-31T14:39:30.597Z,986.44
2019-01-31T14:40:11.242Z,986.43
2019-01-31T14:40:57.126Z,986.41
2019-01-31T14:41:58.079Z,986.44
2019-01-31T14:42:47.542Z,986.41
2019-01-31T14:43:30.061Z,986.37
2019-01-31T14:44:20.078Z,986.37
2019-01-31T14:44:55.976Z,986.39
2019-01-31T14:45:45.959Z,986.37
2019-01-31T14:46:33.353Z,986.33
2019-01-31T14:47:13.981Z,986.38
2019-01-31T14:47:56.747Z,986.35
2019-01-31T14:48:37.323Z,986.38
2019-01-31T14:49:18.070Z,986.38
2019-01-31T14:49:58.634Z,986.38
2019-01-31T14:50:40.161Z,986.41
2019-01-31T14:56:09.320Z,986.36
2019-01-31T15:05:36.680Z,986.33
2019-01-31T15:06:42.605Z,986.34
2019-01-31T15:07:47.787Z,986.34
2019-01-31T15:08:46.437Z,986.32
2019-01-31T15:12:30.196Z,985.93
2019-01-31T15:13:26.526Z,986.32
2019-01-31T15:16:53.690Z,986.28
2019-01-31T15:22:34.305Z,986.24
2019-01-31T15:23:33.229Z,986.26
2019-01-31T15:24:23.381Z,986.26
2019-01-31T15:28:30.456Z,986.15
2019-01-31T15:35:45.901Z,986.07
2019-01-31T15:39:48.174Z,985.96
2019-01-31T15:40:43.987Z,985.96
2019-01-31T15:41:43.249Z,985.95
2019-01-31T15:42:44.763Z,985.98
2019-01-31T15:43:41.688Z,985.94
2019-01-31T15:44:50.495Z,985.96
2019-01-31T15:46:46.637Z,985.62
2019-01-31T15:47:55.847Z,985.91
2019-01-31T15:48:58.740Z,985.9
2019-01-31T15:53:54.503Z,985.8
2019-01-31T15:54:53.406Z,985.8
2019-01-31T15:56:01.740Z,985.76
2019-01-31T15:57:16.133Z,985.77
2019-01-31T15:58:08.141Z,985.73
2019-01-31T15:59:09.098Z,985.72
2019-01-31T16:03:20.135Z,985.6
2019-01-31T16:04:16.806Z,985.62
2019-01-31T16:05:18.925Z,985.65
2019-01-31T16:06:10.553Z,985.64
2019-01-31T16:07:09.240Z,985.65
2019-01-31T16:09:17.699Z,985.69
2019-01-31T16:10:14.544Z,985.68
2019-01-31T16:11:05.591Z,985.68
2019-01-31T16:12:02.838Z,985.6
2019-01-31T16:12:57.154Z,985.61
2019-01-31T16:13:51.310Z,985.62
2019-01-31T16:14:54.268Z,985.59
2019-01-31T16:15:38.175Z,985.6
2019-01-31T16:17:45.721Z,985.57
2019-01-31T16:18:40.571Z,985.54
2019-01-31T16:19:43.486Z,985.52
2019-01-31T16:23:22.506Z,985.53
2019-01-31T16:24:17.715Z,985.48
2019-01-31T16:25:12.576Z,985.48
2019-01-31T16:26:10.998Z,985.45
2019-01-31T16:27:08.462Z,985.48
2019-01-31T16:28:12.553Z,985.46
2019-01-31T16:29:13.251Z,985.47
2019-01-31T16:30:18.037Z,985.48
2019-01-31T16:31:20.376Z,985.36
2019-01-31T16:32:29.710Z,985.47
2019-01-31T17:08:45.790Z,984.97
2019-01-31T17:09:43.579Z,985
2019-01-31T17:10:37.798Z,985
2019-01-31T17:11:46.138Z,984.73
2019-01-31T17:12:55.091Z,985
2019-01-31T17:13:54.211Z,984.96
2019-01-31T17:15:05.555Z,984.98
2019-01-31T17:16:18.775Z,984.92
2019-01-31T17:17:22.572Z,984.87
2019-01-31T17:18:26.936Z,984.94
2019-01-31T17:19:27.842Z,984.95
2019-01-31T17:20:31.111Z,984.9
2019-01-31T17:21:31.776Z,984.93
2019-01-31T17:22:42.753Z,984.89
2019-01-31T17:23:48.679Z,984.91
2019-01-31T17:24:49.182Z,984.9
2019-01-31T17:25:47.927Z,984.92
2019-01-31T17:26:49.652Z,984.94
2019-01-31T17:27:51.075Z,984.91
2019-01-31T17:28:52.385Z,984.96
2019-01-31T17:30:05.626Z,984.94
2019-01-31T17:31:10.951Z,984.96
2019-01-31T17:32:14.539Z,984.93
2019-01-31T17:33:18.635Z,984.96
2019-01-31T17:34:21.779Z,984.91
2019-01-31T17:35:16.866Z,984.89
2019-01-31T17:36:12.001Z,984.87
2019-01-31T17:37:01.555Z,984.85
2019-01-31T17:37:42.018Z,984.85
2019-01-31T17:38:24.020Z,984.86
2019-01-31T17:39:17.981Z,984.84
2019-01-31T17:40:02.946Z,984.9
2019-01-31T17:40:52.569Z,984.92
2019-01-31T17:41:55.565Z,984.88
2019-01-31T17:42:40.674Z,984.89
2019-01-31T17:43:24.676Z,984.9
2019-01-31T17:44:05.202Z,984.9
2019-01-31T17:44:45.539Z,984.94
2019-01-31T17:45:30.165Z,984.88
2019-01-31T17:46:07.887Z,984.86
2019-01-31T17:46:48.221Z,984.85
2019-01-31T17:47:28.780Z,984.86
2019-01-31T17:48:09.060Z,984.86
2019-01-31T17:48:49.468Z,984.87
2019-01-31T17:49:29.810Z,984.86
2019-01-31T17:50:10.276Z,984.84
2019-01-31T17:50:50.601Z,984.85
2019-01-31T17:51:31.040Z,984.82
2019-01-31T17:52:11.365Z,984.81
2019-01-31T17:52:51.842Z,984.79
2019-01-31T17:53:32.221Z,984.74
2019-01-31T17:54:12.566Z,984.73
2019-01-31T17:54:55.920Z,984.7
2019-01-31T17:55:33.340Z,984.7
2019-01-31T17:56:13.795Z,984.72
2019-01-31T17:56:54.221Z,984.7
2019-01-31T17:57:34.590Z,984.72
2019-01-31T17:58:15.005Z,984.71
2019-01-31T17:58:55.288Z,984.67
2019-01-31T17:59:35.738Z,984.66
2019-01-31T18:00:16.196Z,984.66
2019-01-31T18:00:56.517Z,984.66
2019-01-31T18:01:36.885Z,984.63
2019-01-31T18:02:17.307Z,984.64
2019-01-31T18:02:57.822Z,984.66
2019-01-31T18:03:38.119Z,984.65
2019-01-31T18:04:18.494Z,984.64
2019-01-31T18:04:58.918Z,984.61
2019-01-31T18:05:39.336Z,984.66
2019-01-31T18:06:19.763Z,984.72
2019-01-31T18:07:00.290Z,984.69
2019-01-31T18:07:40.706Z,984.66
2019-01-31T18:08:21.165Z,984.63
2019-01-31T18:09:01.776Z,984.63
2019-01-31T18:09:42.193Z,984.59
2019-01-31T18:10:22.664Z,984.6
2019-01-31T18:11:02.926Z,984.58
2019-01-31T18:11:43.398Z,984.61
2019-01-31T18:12:23.792Z,984.6
2019-01-31T18:13:05.654Z,984.58
2019-01-31T18:13:44.600Z,984.58
2019-01-31T18:14:24.996Z,984.58
2019-01-31T18:15:05.371Z,984.61
2019-01-31T18:15:45.764Z,984.56
2019-01-31T18:16:26.194Z,984.53
2019-01-31T18:17:06.678Z,984.54
2019-01-31T18:17:46.997Z,984.52
2019-01-31T18:18:27.480Z,984.54
2019-01-31T18:19:07.908Z,984.53
2019-01-31T18:19:48.645Z,984.54
2019-01-31T18:20:29.126Z,984.49
2019-01-31T18:21:09.504Z,984.51
2019-01-31T18:21:50.011Z,984.5
2019-01-31T18:22:30.585Z,984.46
2019-01-31T18:23:10.899Z,984.43
2019-01-31T18:23:51.345Z,984.45
2019-01-31T18:24:31.773Z,984.37
2019-01-31T18:25:12.128Z,984.36
2019-01-31T18:25:52.620Z,984.39
2019-01-31T18:26:33.373Z,984.34
2019-01-31T18:27:13.908Z,984.33
2019-01-31T18:27:54.340Z,984.32
2019-01-31T18:28:34.936Z,984.32
2019-01-31T18:29:15.427Z,984.32
2019-01-31T18:29:55.801Z,984.33
2019-01-31T18:30:36.152Z,984.35
2019-01-31T18:31:16.660Z,984.37
2019-01-31T18:31:57.040Z,984.34
2019-01-31T18:32:37.459Z,984.32
2019-01-31T18:33:17.853Z,984.3
2019-01-31T18:33:58.457Z,984.35
2019-01-31T18:34:38.691Z,984.26
2019-01-31T18:35:19.073Z,984.23
2019-01-31T18:35:59.488Z,984.22
2019-01-31T18:36:40.158Z,984.25
2019-01-31T18:37:20.846Z,984.25
2019-01-31T18:38:01.658Z,984.19
2019-01-31T18:38:42.024Z,984.19
2019-01-31T18:39:22.698Z,984.18
2019-01-31T18:40:03.054Z,984.18
2019-01-31T18:40:43.442Z,984.11
2019-01-31T18:41:23.878Z,984.13
2019-01-31T18:42:04.355Z,984.09
2019-01-31T18:44:32.079Z,983.94
2019-01-31T18:45:26.631Z,983.96
2019-01-31T18:46:20.241Z,984.01
2019-01-31T18:47:13.287Z,984.06
2019-01-31T18:48:07.090Z,984.16
2019-01-31T18:48:59.807Z,984.21
2019-01-31T18:49:52.149Z,984.2
2019-01-31T18:50:45.404Z,984.22
2019-01-31T18:51:39.057Z,984.2
2019-01-31T18:52:33.320Z,984.25
2019-01-31T18:53:26.385Z,984.26
2019-01-31T18:54:18.710Z,984.26
2019-01-31T18:55:11.170Z,984.33
2019-01-31T18:56:05.096Z,984.33
2019-01-31T18:56:58.067Z,984.37
2019-01-31T18:57:51.221Z,984.35
2019-01-31T18:58:46.970Z,984.28
2019-01-31T18:59:41.928Z,984.25
2019-01-31T19:00:39.353Z,984.21
2019-01-31T19:01:35.631Z,984.22
2019-01-31T19:02:33.919Z,984.21
2019-01-31T19:03:32.147Z,984.18
2019-01-31T19:04:27.130Z,984.2
2019-01-31T19:05:29.290Z,984.22
2019-01-31T19:06:22.430Z,984.2
2019-01-31T19:07:18.146Z,984.21
2019-01-31T19:08:14.888Z,984.14
2019-01-31T19:09:09.507Z,984.09
2019-01-31T19:10:05.122Z,984.16
2019-01-31T19:11:01.017Z,984.16
2019-01-31T19:11:57.077Z,984.13
2019-01-31T19:12:55.603Z,984.14
2019-01-31T19:13:50.531Z,984.09
2019-01-31T19:14:46.820Z,984.08
2019-01-31T19:15:46.145Z,984.06
2019-01-31T19:16:39.597Z,984.01
2019-01-31T19:17:38.092Z,983.95
2019-01-31T19:18:31.276Z,983.98
2019-01-31T19:19:29.539Z,983.98
2019-01-31T19:20:22.324Z,983.99
2019-01-31T19:21:18.976Z,984.04
2019-01-31T19:22:17.899Z,984.05